createdAt,value
2023-06-17T00:00:54.805Z,11.57
2023-06-17T00:03:45.012Z,12.07
2023-06-17T00:06:30.847Z,11.52
2023-06-17T00:09:21.380Z,12.52
2023-06-17T00:12:07.184Z,11.55
2023-06-17T00:14:54.494Z,11.35
2023-06-17T00:17:45.977Z,11.18
2023-06-17T00:20:33.938Z,11.95
2023-06-17T00:23:23.182Z,11.55
2023-06-17T00:26:09.782Z,12.05
2023-06-17T00:28:55.851Z,12.70
2023-06-17T00:31:41.879Z,11.50
2023-06-17T00:34:27.406Z,12.48
2023-06-17T00:37:13.773Z,12.68
2023-06-17T00:39:59.602Z,12.68
2023-06-17T00:42:45.911Z,11.98
2023-06-17T00:45:39.823Z,11.10
2023-06-17T00:48:26.163Z,11.77
2023-06-17T00:51:12.917Z,12.50
2023-06-17T00:54:00.096Z,11.27
2023-06-17T00:56:45.732Z,12.32
2023-06-17T00:59:33.832Z,11.38
2023-06-17T01:02:21.081Z,12.52
2023-06-17T01:05:12.818Z,12.85
2023-06-17T01:08:18.172Z,12.30
2023-06-17T01:11:14.414Z,12.15
2023-06-17T01:14:01.135Z,12.50
2023-06-17T01:16:52.086Z,11.70
2023-06-17T01:19:39.283Z,11.82
2023-06-17T01:22:25.437Z,12.13
2023-06-17T01:25:14.250Z,11.85
2023-06-17T01:28:04.787Z,13.38
2023-06-17T01:30:55.978Z,11.77
2023-06-17T01:33:42.872Z,12.68
2023-06-17T01:36:34.409Z,12.05
2023-06-17T01:39:21.517Z,11.55
2023-06-17T01:42:13.324Z,11.05
2023-06-17T01:45:01.385Z,12.05
2023-06-17T01:47:47.411Z,11.20
2023-06-17T01:50:33.736Z,12.80
2023-06-17T01:53:20.117Z,12.73
2023-06-17T01:56:07.123Z,11.25
2023-06-17T01:58:53.153Z,13.48
2023-06-17T02:01:39.587Z,11.75
2023-06-17T02:04:25.858Z,12.00
2023-06-17T02:07:12.189Z,11.43
2023-06-17T02:09:58.593Z,11.52
2023-06-17T02:12:45.718Z,12.15
2023-06-17T02:15:32.952Z,12.20
2023-06-17T02:18:20.074Z,10.90
2023-06-17T02:21:05.736Z,12.88
2023-06-17T02:23:53.108Z,12.23
2023-06-17T02:26:38.890Z,12.80
2023-06-17T02:29:28.255Z,12.18
2023-06-17T02:32:14.504Z,12.30
2023-06-17T02:35:01.011Z,13.60
2023-06-17T02:37:47.105Z,13.35
2023-06-17T02:40:33.255Z,13.20
2023-06-17T02:43:19.556Z,12.60
2023-06-17T02:46:05.420Z,13.73
2023-06-17T02:48:52.427Z,13.23
2023-06-17T02:51:39.618Z,14.15
2023-06-17T02:54:25.636Z,13.93
2023-06-17T02:57:11.748Z,13.30
2023-06-17T02:59:57.603Z,14.63
2023-06-17T03:02:43.821Z,14.32
2023-06-17T03:05:31.342Z,14.05
2023-06-17T03:08:19.290Z,14.68
2023-06-17T03:11:06.456Z,15.18
2023-06-17T03:13:54.343Z,14.98
2023-06-17T03:16:47.948Z,13.60
2023-06-17T03:19:34.566Z,13.90
2023-06-17T03:22:20.789Z,14.57
2023-06-17T03:25:09.175Z,14.38
2023-06-17T03:27:56.299Z,14.82
2023-06-17T03:30:42.423Z,14.80
2023-06-17T03:33:29.490Z,14.43
2023-06-17T03:36:18.674Z,13.93
2023-06-17T03:39:04.713Z,15.00
2023-06-17T03:41:53.916Z,14.57
2023-06-17T03:44:40.473Z,15.50
2023-06-17T03:47:26.431Z,15.38
2023-06-17T03:50:13.018Z,13.57
2023-06-17T03:52:59.619Z,15.20
2023-06-17T03:55:45.912Z,15.43
2023-06-17T03:58:31.896Z,16.00
2023-06-17T04:01:17.620Z,16.27
2023-06-17T04:04:03.746Z,15.88
2023-06-17T04:06:49.673Z,16.98
2023-06-17T04:09:35.872Z,15.52
2023-06-17T04:12:22.149Z,15.40
2023-06-17T04:15:09.619Z,15.40
2023-06-17T04:17:58.073Z,15.48
2023-06-17T04:20:46.195Z,16.05
2023-06-17T04:23:32.241Z,15.70
2023-06-17T04:26:20.198Z,15.80
2023-06-17T04:29:06.666Z,16.67
2023-06-17T04:31:56.150Z,15.02
2023-06-17T04:34:49.049Z,14.00
2023-06-17T04:37:37.935Z,14.60
2023-06-17T04:40:24.775Z,12.48
2023-06-17T04:43:11.370Z,12.93
2023-06-17T04:45:57.913Z,14.88
2023-06-17T04:48:47.740Z,13.40
2023-06-17T04:51:39.470Z,12.60
2023-06-17T04:54:26.700Z,11.38
2023-06-17T04:57:13.056Z,10.15
2023-06-17T04:59:59.151Z,10.32
2023-06-17T05:02:46.408Z,12.07
2023-06-17T05:05:32.860Z,12.05
2023-06-17T05:08:18.953Z,10.77
2023-06-17T05:11:04.933Z,10.93
2023-06-17T05:13:54.052Z,11.93
2023-06-17T05:16:40.637Z,12.07
2023-06-17T05:19:27.016Z,12.13
2023-06-17T05:22:13.319Z,11.25
2023-06-17T05:25:00.266Z,12.98
2023-06-17T05:27:47.121Z,12.35
2023-06-17T05:30:33.997Z,11.60
2023-06-17T05:33:23.779Z,11.85
2023-06-17T05:36:09.992Z,12.00
2023-06-17T05:38:56.937Z,10.52
2023-06-17T05:41:42.946Z,10.80
2023-06-17T05:44:29.079Z,11.57
2023-06-17T05:47:15.813Z,11.18
2023-06-17T05:50:02.211Z,11.23
2023-06-17T05:52:48.539Z,9.98
2023-06-17T05:55:35.211Z,10.77
2023-06-17T05:58:21.436Z,10.00
2023-06-17T06:01:15.332Z,10.18
2023-06-17T06:04:01.472Z,10.18
2023-06-17T06:06:47.795Z,8.90
2023-06-17T06:09:34.447Z,9.38
2023-06-17T06:12:21.269Z,9.43
2023-06-17T06:15:07.567Z,9.20
2023-06-17T06:17:54.591Z,8.95
2023-06-17T06:20:40.623Z,9.15
2023-06-17T06:23:27.067Z,10.00
2023-06-17T06:26:13.324Z,9.40
2023-06-17T06:28:59.218Z,10.35
2023-06-17T06:31:45.391Z,8.15
2023-06-17T06:34:34.259Z,8.77
2023-06-17T06:37:20.549Z,8.32
2023-06-17T06:40:07.612Z,7.90
2023-06-17T06:42:55.684Z,8.88
2023-06-17T06:45:46.304Z,8.45
2023-06-17T06:48:32.293Z,10.05
2023-06-17T06:51:19.002Z,8.13
2023-06-17T06:54:06.083Z,8.90
2023-06-17T06:56:52.240Z,7.78
2023-06-17T06:59:38.679Z,8.57
2023-06-17T07:02:25.288Z,9.18
2023-06-17T07:05:11.750Z,7.93
2023-06-17T07:08:03.511Z,7.75
2023-06-17T07:10:49.375Z,7.70
2023-06-17T07:13:36.007Z,7.43
2023-06-17T07:16:24.836Z,7.07
2023-06-17T07:19:13.043Z,6.82
2023-06-17T07:21:59.203Z,7.93
2023-06-17T07:24:46.836Z,7.65
2023-06-17T07:27:32.338Z,6.68
2023-06-17T07:30:21.040Z,7.10
2023-06-17T07:33:07.130Z,7.03
2023-06-17T07:35:53.742Z,6.78
2023-06-17T07:38:39.572Z,6.15
2023-06-17T07:41:26.297Z,6.47
2023-06-17T07:44:11.839Z,5.70
2023-06-17T07:47:01.151Z,6.60
2023-06-17T07:49:47.291Z,6.70
2023-06-17T07:53:12.125Z,6.40
2023-06-17T07:55:57.806Z,6.07
2023-06-17T07:58:45.169Z,8.80
2023-06-17T08:01:31.349Z,6.13
2023-06-17T08:04:17.439Z,5.90
2023-06-17T08:07:04.910Z,5.47
2023-06-17T08:10:16.598Z,4.82
2023-06-17T08:13:07.701Z,5.13
2023-06-17T08:16:26.421Z,5.32
2023-06-17T08:19:19.744Z,5.70
2023-06-17T08:22:07.608Z,5.00
2023-06-17T08:24:54.560Z,4.82
2023-06-17T08:27:43.743Z,4.90
2023-06-17T08:30:29.171Z,5.22
2023-06-17T08:33:16.187Z,4.82
2023-06-17T08:36:01.913Z,4.95
2023-06-17T08:38:48.180Z,4.35
2023-06-17T08:41:39.059Z,4.28
2023-06-17T08:44:27.420Z,4.40
2023-06-17T08:47:17.159Z,4.72
2023-06-17T08:50:04.192Z,4.65
2023-06-17T08:52:50.787Z,4.43
2023-06-17T08:55:38.864Z,4.57
2023-06-17T08:58:24.559Z,4.80
2023-06-17T09:01:11.874Z,5.20
2023-06-17T09:03:58.174Z,5.30
2023-06-17T09:06:45.609Z,4.90
2023-06-17T09:09:31.895Z,4.75
2023-06-17T09:12:45.102Z,4.63
2023-06-17T09:16:03.388Z,4.82
2023-06-17T09:19:24.995Z,4.30
2023-06-17T09:28:23.651Z,4.50
2023-06-17T09:45:13.729Z,3.80
2023-06-17T09:49:02.394Z,4.30
2023-06-17T10:14:10.386Z,4.75
2023-06-17T10:25:40.651Z,4.35
2023-06-17T10:44:51.024Z,4.45
2023-06-17T11:11:19.355Z,4.40
2023-06-17T11:14:23.133Z,4.30
2023-06-17T11:18:30.900Z,4.80
2023-06-17T11:27:48.010Z,4.72
2023-06-17T18:44:01.249Z,11.18
2023-06-17T18:46:47.484Z,11.90
2023-06-17T18:49:40.864Z,12.18
2023-06-17T18:52:27.093Z,12.23
2023-06-17T18:55:13.737Z,11.02
2023-06-17T18:58:03.628Z,11.05
2023-06-17T19:00:49.951Z,11.55
2023-06-17T19:03:36.840Z,9.82
2023-06-17T19:06:23.165Z,11.57
2023-06-17T19:09:08.694Z,11.35
2023-06-17T19:12:01.153Z,13.73
2023-06-17T19:14:47.049Z,11.38
2023-06-17T19:17:33.031Z,12.50
2023-06-17T19:20:19.486Z,11.70
2023-06-17T19:23:06.224Z,13.23
2023-06-17T19:25:52.216Z,12.15
2023-06-17T19:28:38.235Z,12.25
2023-06-17T19:31:25.815Z,12.55
2023-06-17T19:34:12.126Z,14.52
2023-06-17T19:36:58.174Z,14.95
2023-06-17T19:39:44.494Z,15.18
2023-06-17T19:42:30.435Z,15.25
2023-06-17T19:45:16.961Z,12.35
2023-06-17T19:48:02.867Z,11.95
2023-06-17T19:50:49.135Z,13.13
2023-06-17T19:53:35.189Z,13.35
2023-06-17T19:56:21.792Z,14.63
2023-06-17T19:59:07.836Z,11.82
2023-06-17T20:01:54.312Z,13.63
2023-06-17T20:04:40.321Z,12.38
2023-06-17T20:07:26.738Z,14.00
2023-06-17T20:10:12.402Z,13.23
2023-06-17T20:12:59.388Z,12.75
2023-06-17T20:15:45.717Z,12.98
2023-06-17T20:18:32.156Z,13.13
2023-06-17T20:21:18.357Z,14.57
2023-06-17T20:24:05.137Z,12.93
2023-06-17T20:26:51.129Z,13.45
2023-06-17T20:29:37.021Z,12.98
2023-06-17T20:32:22.834Z,14.25
2023-06-17T20:35:11.039Z,15.90
2023-06-17T20:37:57.810Z,15.18
2023-06-17T20:40:43.849Z,16.27
2023-06-17T20:43:30.073Z,13.48
2023-06-17T20:46:16.923Z,15.18
2023-06-17T20:49:03.004Z,16.27
2023-06-17T20:51:49.297Z,16.50
2023-06-17T20:54:35.419Z,16.17
2023-06-17T20:57:21.313Z,18.02
2023-06-17T21:00:07.549Z,17.20
2023-06-17T21:02:54.130Z,16.23
2023-06-17T21:05:40.552Z,16.88
2023-06-17T21:08:26.805Z,16.30
2023-06-17T21:11:12.929Z,15.50
2023-06-17T21:14:01.712Z,17.35
2023-06-17T21:16:47.302Z,17.02
2023-06-17T21:19:33.610Z,20.45
2023-06-17T21:22:19.150Z,18.20
2023-06-17T21:25:06.103Z,19.77
2023-06-17T21:27:51.874Z,19.08
2023-06-17T21:30:38.035Z,17.65
2023-06-17T21:33:25.357Z,17.70
2023-06-17T21:36:11.623Z,19.58
2023-06-17T21:38:57.518Z,19.13
2023-06-17T21:41:43.827Z,18.35
2023-06-17T21:44:30.796Z,18.35
2023-06-17T21:47:18.436Z,19.38
2023-06-17T21:50:04.732Z,18.85
2023-06-17T21:52:50.887Z,17.73
2023-06-17T21:55:36.614Z,21.48
2023-06-17T21:58:22.606Z,19.08
2023-06-17T22:01:08.318Z,21.02
2023-06-17T22:03:54.560Z,20.95
2023-06-17T22:06:40.787Z,19.70
2023-06-17T22:09:26.960Z,20.42
2023-06-17T22:12:12.450Z,21.40
2023-06-17T22:15:01.889Z,19.98
2023-06-17T22:17:51.342Z,20.20
2023-06-17T22:20:37.598Z,19.17
2023-06-17T22:23:23.395Z,19.02
2023-06-17T22:26:09.426Z,18.40
2023-06-17T22:28:54.864Z,19.35
2023-06-17T22:31:41.078Z,17.90
2023-06-17T22:34:26.954Z,19.15
2023-06-17T22:37:13.106Z,17.30
2023-06-17T22:39:59.106Z,18.17
2023-06-17T22:42:45.426Z,18.38
2023-06-17T22:45:30.783Z,17.20
2023-06-17T22:48:17.240Z,18.23
2023-06-17T22:51:03.264Z,18.13
2023-06-17T22:53:49.721Z,17.67
2023-06-17T22:56:35.619Z,17.58
2023-06-17T22:59:23.006Z,16.80
2023-06-17T23:02:08.768Z,16.55
2023-06-17T23:04:54.613Z,17.15
2023-06-17T23:07:40.264Z,18.65
2023-06-17T23:10:26.897Z,18.10
2023-06-17T23:13:12.409Z,16.83
2023-06-17T23:15:59.113Z,19.15
2023-06-17T23:18:44.654Z,21.52
2023-06-17T23:21:31.188Z,22.17
2023-06-17T23:24:17.807Z,19.58
2023-06-17T23:27:05.311Z,18.50
2023-06-17T23:29:55.245Z,18.08
2023-06-17T23:32:41.421Z,18.85
2023-06-17T23:35:27.411Z,20.45
2023-06-17T23:38:13.679Z,20.77
2023-06-17T23:40:59.911Z,18.48
2023-06-17T23:43:46.217Z,19.05
2023-06-17T23:46:33.303Z,19.83
2023-06-17T23:49:19.719Z,18.42
2023-06-17T23:52:07.256Z,17.15
2023-06-17T23:54:53.925Z,18.05
2023-06-17T23:57:39.471Z,18.17
